Time;durP1;ratioP1;P1;durP2;ratioP2;P2;SDS_P1;SDS_P2;PMS_P1;PMS_P2;Temp;Humidity;BMP_temperature;BMP_pressure;BME280_temperature;BME280_humidity;BME280_pressure;Samples;Min_cycle;Max_cycle;Signal;HPM_P1;HPM_P2
2023/07/01 00:00:42;;;;;;;18.88;10.43;;;;;;;-143.21;72.60;71522.94;5132590;27;20704;-77
2023/07/01 00:03:09;;;;;;;15.43;9.73;;;;;;;-143.21;73.15;71526.91;5132314;27;20705;-77
2023/07/01 00:05:35;;;;;;;19.38;10.68;;;;;;;-143.21;73.27;71520.94;5132227;27;20206;-78
2023/07/01 00:08:02;;;;;;;17.50;10.32;;;;;;;-143.21;73.56;71522.94;5132510;27;20214;-78
2023/07/01 00:10:29;;;;;;;23.05;11.32;;;;;;;-143.21;73.61;71528.88;5132742;27;20197;-78
2023/07/01 00:12:57;;;;;;;18.13;9.90;;;;;;;-143.21;74.27;71524.91;5132247;27;20203;-78
2023/07/01 00:15:24;;;;;;;22.95;10.80;;;;;;;-143.21;74.12;71524.91;5132218;27;20602;-78
2023/07/01 00:17:54;;;;;;;15.05;10.48;;;;;;;-143.21;73.65;71530.88;5132358;27;20195;-78
2023/07/01 00:20:21;;;;;;;13.48;9.85;;;;;;;-143.21;73.47;71544.75;5131868;27;20229;-78
2023/07/01 00:22:47;;;;;;;17.13;9.50;;;;;;;-143.21;73.40;71556.63;5132455;27;20215;-78
2023/07/01 00:25:14;;;;;;;14.82;9.75;;;;;;;-143.21;73.15;71560.59;5132077;27;20253;-78
2023/07/01 00:27:42;;;;;;;15.02;8.95;;;;;;;-143.21;73.14;71558.63;5131926;27;20200;-78
2023/07/01 00:30:12;;;;;;;13.77;9.48;;;;;;;-143.21;72.88;71554.66;5131960;27;20259;-76
2023/07/01 00:32:38;;;;;;;22.85;11.00;;;;;;;-143.21;73.71;71558.63;5131667;27;20199;-76
2023/07/01 00:35:06;;;;;;;14.32;9.90;;;;;;;-143.21;74.02;71550.69;5131833;27;20252;-77
2023/07/01 00:37:33;;;;;;;15.98;10.13;;;;;;;-143.21;73.67;71544.75;5132134;27;20210;-76
2023/07/01 00:39:59;;;;;;;17.30;10.30;;;;;;;-143.21;74.08;71548.72;5131970;27;20195;-78
2023/07/01 00:42:26;;;;;;;13.10;9.65;;;;;;;-143.21;74.37;71556.63;5131892;27;20191;-76
2023/07/01 00:44:53;;;;;;;16.65;9.93;;;;;;;-143.21;73.99;71554.66;5131535;27;20219;-76
2023/07/01 00:47:21;;;;;;;13.30;9.82;;;;;;;-143.21;74.36;71558.63;5131912;28;20244;-76
2023/07/01 00:49:48;;;;;;;15.45;9.40;;;;;;;-143.21;74.57;71548.72;5131591;28;20191;-76
2023/07/01 00:52:15;;;;;;;13.88;9.57;;;;;;;-143.21;74.64;71554.66;5131755;28;20248;-77
2023/07/01 00:54:44;;;;;;;14.98;9.25;;;;;;;-143.21;73.91;71562.59;5131531;28;20191;-76
2023/07/01 00:57:11;;;;;;;15.00;9.80;;;;;;;-143.21;74.17;71562.59;5131558;28;20355;-76
2023/07/01 00:59:38;;;;;;;16.23;9.63;;;;;;;-143.21;74.37;71566.56;5131415;28;20200;-77
2023/07/01 01:02:13;;;;;;;14.40;9.75;;;;;;;-143.21;74.69;71570.53;5131557;28;20195;-77
2023/07/01 01:04:47;;;;;;;14.77;9.82;;;;;;;-143.21;75.07;71580.44;5127681;28;20318;-77
2023/07/01 01:07:21;;;;;;;15.50;9.15;;;;;;;-143.21;75.30;71584.41;5131950;27;20199;-77
2023/07/01 01:09:52;;;;;;;18.13;9.85;;;;;;;-143.21;75.59;71574.47;5135709;27;20175;-77
2023/07/01 01:12:21;;;;;;;14.95;9.85;;;;;;;-143.21;76.00;71576.47;5135916;27;20225;-77
2023/07/01 01:14:51;;;;;;;15.53;9.77;;;;;;;-143.21;76.12;71578.44;5135304;27;20718;-76
2023/07/01 01:17:20;;;;;;;14.68;9.88;;;;;;;-143.21;75.85;71570.53;5136090;27;20195;-76
2023/07/01 01:19:55;;;;;;;16.92;9.98;;;;;;;-143.21;76.06;71568.53;5135847;27;20677;-77
2023/07/01 01:22:27;;;;;;;14.52;9.90;;;;;;;-143.21;76.30;71572.50;5094843;28;20200;-77
2023/07/01 01:24:58;;;;;;;21.48;10.43;;;;;;;-143.21;76.30;71566.56;5094409;28;20216;-77
2023/07/01 01:27:28;;;;;;;15.32;10.23;;;;;;;-143.21;76.25;71580.44;5095054;28;20200;-77
2023/07/01 01:29:56;;;;;;;12.00;9.38;;;;;;;-143.21;76.77;71586.38;5094635;28;20200;-77
2023/07/01 01:32:23;;;;;;;17.73;10.25;;;;;;;-143.21;77.40;71594.31;5094876;28;20196;-77
2023/07/01 01:34:50;;;;;;;14.10;9.45;;;;;;;-143.21;77.48;71602.25;5094258;28;20284;-76
2023/07/01 01:37:22;;;;;;;17.10;10.10;;;;;;;-143.21;77.56;71592.31;5094546;28;20208;-77
2023/07/01 01:39:55;;;;;;;12.20;9.63;;;;;;;-143.21;77.41;71584.41;5094019;28;20230;-77
2023/07/01 01:42:27;;;;;;;16.58;9.35;;;;;;;-143.21;77.61;71582.41;5094234;28;20201;-77
2023/07/01 01:44:56;;;;;;;14.23;8.73;;;;;;;-143.21;77.91;71580.44;5094101;28;20563;-76
2023/07/01 01:47:27;;;;;;;15.75;8.77;;;;;;;-143.21;77.66;71578.44;5094242;28;20204;-76
2023/07/01 01:49:59;;;;;;;12.35;8.57;;;;;;;-143.21;77.32;71580.44;5094357;28;20313;-76
2023/07/01 01:52:27;;;;;;;10.85;7.88;;;;;;;-143.21;77.11;71580.44;5094516;28;20306;-76
2023/07/01 01:54:57;;;;;;;9.55;8.07;;;;;;;-143.21;77.16;71582.41;5094083;28;20200;-76
2023/07/01 01:57:25;;;;;;;13.90;8.23;;;;;;;-143.21;77.09;71594.31;5094434;28;20197;-77
2023/07/01 01:59:52;;;;;;;10.82;8.40;;;;;;;-143.21;77.22;71594.31;5093950;28;20197;-77
2023/07/01 02:02:20;;;;;;;14.00;8.80;;;;;;;-143.21;77.01;71586.38;5093807;28;20864;-76
2023/07/01 02:04:47;;;;;;;11.73;8.27;;;;;;;-143.21;77.16;71586.38;5093741;28;20231;-77
2023/07/01 02:07:13;;;;;;;14.38;8.43;;;;;;;-143.21;77.36;71584.41;5093801;28;20212;-77
2023/07/01 02:09:40;;;;;;;11.80;8.55;;;;;;;-143.21;77.02;71598.28;5093634;28;20250;-78
2023/07/01 02:12:07;;;;;;;14.57;8.73;;;;;;;-143.21;77.18;71602.25;5094078;28;20197;-77
2023/07/01 02:14:34;;;;;;;13.45;8.50;;;;;;;-143.21;77.48;71604.22;5093487;28;20599;-77
2023/07/01 02:17:01;;;;;;;13.82;8.38;;;;;;;-143.21;77.74;71608.19;5093805;28;20564;-77
2023/07/01 02:19:29;;;;;;;11.95;7.97;;;;;;;-143.21;77.77;71604.22;5092686;28;20201;-77
2023/07/01 02:21:56;;;;;;;12.80;8.27;;;;;;;-143.21;77.78;71612.16;5127616;27;20265;-77
2023/07/01 02:24:23;;;;;;;12.27;8.32;;;;;;;-143.21;77.87;71608.19;5134425;27;20219;-78
2023/07/01 02:26:50;;;;;;;9.25;8.23;;;;;;;-143.21;77.79;71606.22;5134376;27;20196;-77
2023/07/01 02:29:17;;;;;;;12.10;8.18;;;;;;;-143.21;77.91;71618.09;5134329;27;20689;-77
2023/07/01 02:31:43;;;;;;;11.40;8.40;;;;;;;-143.21;77.82;71612.16;5134654;27;20191;-78
2023/07/01 02:34:10;;;;;;;15.50;8.50;;;;;;;-143.21;78.06;71616.13;5134741;27;20192;-77
2023/07/01 02:36:40;;;;;;;17.23;9.20;;;;;;;-143.21;77.72;71612.16;5134515;27;20272;-77
2023/07/01 02:39:07;;;;;;;15.15;8.98;;;;;;;-143.21;77.74;71620.09;5134425;27;20290;-77
2023/07/01 02:41:34;;;;;;;13.40;8.32;;;;;;;-143.21;77.95;71631.97;5134389;27;20191;-77
2023/07/01 02:44:00;;;;;;;13.60;7.53;;;;;;;-143.21;77.78;71635.94;5134348;27;20219;-77
2023/07/01 02:46:28;;;;;;;13.48;8.25;;;;;;;-143.21;78.16;71647.84;5134004;27;20698;-77
2023/07/01 02:48:55;;;;;;;11.40;7.93;;;;;;;-143.21;78.26;71639.91;5134250;27;20666;-77
2023/07/01 02:51:22;;;;;;;16.83;7.83;;;;;;;-143.21;77.41;71633.97;5134125;27;20905;-77
2023/07/01 02:53:50;;;;;;;11.77;7.67;;;;;;;-143.21;77.32;71633.97;5134021;27;20730;-77
2023/07/01 02:56:17;;;;;;;10.55;8.18;;;;;;;-143.21;77.08;71637.94;5133835;27;20214;-77
2023/07/01 02:58:43;;;;;;;8.83;7.70;;;;;;;-143.21;77.76;71649.81;5134032;27;20563;-77
2023/07/01 03:01:10;;;;;;;16.00;8.23;;;;;;;-143.21;77.87;71661.72;5134094;27;20665;-77
2023/07/01 03:03:37;;;;;;;10.53;8.33;;;;;;;-143.21;77.66;71669.66;5134074;27;20235;-77
2023/07/01 03:06:04;;;;;;;13.20;8.17;;;;;;;-143.21;78.42;71675.59;5133897;27;20690;-77
2023/07/01 03:08:31;;;;;;;14.33;8.30;;;;;;;-143.21;78.14;71683.53;5133941;27;20199;-77
2023/07/01 03:10:59;;;;;;;9.40;8.27;;;;;;;-143.21;78.95;71689.47;5134198;27;20231;-77
2023/07/01 03:13:25;;;;;;;14.47;7.97;;;;;;;-143.21;78.58;71677.59;5133663;27;20248;-77
2023/07/01 03:15:53;;;;;;;11.43;8.00;;;;;;;-143.21;78.96;71677.59;5133812;27;20192;-77
2023/07/01 03:18:20;;;;;;;13.63;8.17;;;;;;;-143.21;79.14;71673.63;5133565;27;20192;-77
2023/07/01 03:20:47;;;;;;;14.13;8.50;;;;;;;-143.21;78.90;71677.59;5133431;27;20231;-77
2023/07/01 03:23:14;;;;;;;14.50;8.50;;;;;;;-143.21;79.53;71681.56;5133238;27;20191;-76
2023/07/01 03:25:41;;;;;;;10.20;8.03;;;;;;;-143.21;78.96;71673.63;5132742;27;20599;-76
2023/07/01 03:28:09;;;;;;;11.67;8.43;;;;;;;-143.21;78.96;71667.66;5132839;27;20211;-76
2023/07/01 03:30:36;;;;;;;13.03;8.40;;;;;;;-143.21;79.02;71669.66;5133088;27;20227;-77
2023/07/01 03:33:05;;;;;;;15.47;8.47;;;;;;;-143.21;79.16;71647.84;5132999;27;20205;-77
2023/07/01 03:35:32;;;;;;;11.57;8.70;;;;;;;-143.21;79.10;71653.78;5132848;27;20220;-78
2023/07/01 03:37:59;;;;;;;15.43;8.90;;;;;;;-143.21;78.76;71651.81;5133162;27;20252;-78
2023/07/01 03:40:25;;;;;;;13.40;8.10;;;;;;;-143.21;78.47;71659.75;5132994;27;20230;-78
2023/07/01 03:42:52;;;;;;;14.93;8.73;;;;;;;-143.21;78.38;71649.81;5132864;27;20198;-78
2023/07/01 03:45:20;;;;;;;12.57;8.30;;;;;;;-143.21;78.37;71643.88;5132717;27;20226;-79
2023/07/01 03:47:47;;;;;;;11.40;8.13;;;;;;;-143.21;78.24;71637.94;5132680;27;20283;-78
2023/07/01 03:50:15;;;;;;;10.43;8.53;;;;;;;-143.21;78.23;71641.91;5132832;27;20605;-78
2023/07/01 03:52:42;;;;;;;13.57;9.10;;;;;;;-143.21;77.53;71633.97;5132813;27;20708;-78
2023/07/01 03:55:12;;;;;;;13.23;9.00;;;;;;;-143.21;77.15;71633.97;5132530;27;20549;-78
2023/07/01 03:57:39;;;;;;;11.90;8.90;;;;;;;-143.21;77.30;71639.91;5132970;27;20295;-78
2023/07/01 04:00:08;;;;;;;13.10;8.40;;;;;;;-143.21;77.77;71637.94;5132806;27;20191;-78
2023/07/01 04:02:37;;;;;;;14.20;9.10;;;;;;;-143.21;77.19;71633.97;5132712;27;20206;-78
2023/07/01 04:05:10;;;;;;;12.13;8.95;;;;;;;-143.21;77.01;71624.06;5132435;27;20251;-78
2023/07/01 04:07:37;;;;;;;14.23;9.70;;;;;;;-143.21;77.04;71618.09;5132525;27;20287;-78
2023/07/01 04:10:05;;;;;;;16.90;9.23;;;;;;;-143.21;76.91;71618.09;5132423;27;20191;-78
2023/07/01 04:12:32;;;;;;;12.03;8.97;;;;;;;-143.21;76.78;71620.09;5132691;27;20653;-78
2023/07/01 04:14:59;;;;;;;15.43;9.45;;;;;;;-143.21;76.47;71620.09;5132343;27;20286;-78
2023/07/01 04:17:26;;;;;;;15.23;9.10;;;;;;;-143.21;76.95;71630.00;5132059;27;20625;-78
2023/07/01 04:19:54;;;;;;;13.93;8.83;;;;;;;-143.21;77.19;71626.03;5132069;27;20252;-78
2023/07/01 04:22:21;;;;;;;12.90;9.23;;;;;;;-143.21;76.83;71624.06;5132094;27;20590;-78
2023/07/01 04:24:48;;;;;;;12.40;9.52;;;;;;;-143.21;76.61;71612.16;5131816;27;20287;-78
2023/07/01 04:27:15;;;;;;;11.75;9.32;;;;;;;-143.21;77.00;71612.16;5132069;27;20198;-78
2023/07/01 04:29:42;;;;;;;14.55;9.23;;;;;;;-143.21;77.18;71604.22;5132420;27;20203;-78
2023/07/01 04:32:08;;;;;;;20.50;9.60;;;;;;;-143.21;77.09;71596.28;5131692;27;20302;-77
2023/07/01 04:34:36;;;;;;;15.05;9.70;;;;;;;-143.21;76.88;71590.34;5131858;27;20199;-76
2023/07/01 04:37:05;;;;;;;12.53;9.57;;;;;;;-143.21;76.70;71592.31;5131807;27;20206;-78
2023/07/01 04:39:31;;;;;;;14.88;9.30;;;;;;;-143.21;76.92;71586.38;5131736;27;20665;-77
2023/07/01 04:41:58;;;;;;;13.38;9.82;;;;;;;-143.21;76.82;71576.47;5130812;27;20555;-77
2023/07/01 04:44:25;;;;;;;19.60;9.98;;;;;;;-143.21;76.81;71576.47;5131838;27;20264;-77
2023/07/01 04:46:52;;;;;;;22.70;10.27;;;;;;;-143.21;76.71;71568.53;5131539;27;20199;-78
2023/07/01 04:49:19;;;;;;;16.05;9.93;;;;;;;-143.21;77.16;71570.53;5131550;28;20643;-78
2023/07/01 04:51:45;;;;;;;18.83;11.60;;;;;;;-143.21;75.81;71564.56;5131708;28;20186;-77
2023/07/01 04:54:14;;;;;;;18.17;11.02;;;;;;;-143.21;75.58;71566.56;5131725;28;20191;-77
2023/07/01 04:56:41;;;;;;;16.05;11.35;;;;;;;-143.21;74.85;71560.59;5131323;28;20192;-78
2023/07/01 04:59:07;;;;;;;14.82;11.32;;;;;;;-143.21;74.69;71572.50;5131508;28;20187;-78
2023/07/01 05:01:34;;;;;;;13.75;11.65;;;;;;;-143.21;74.91;71574.47;5131592;28;20223;-78
2023/07/01 05:04:01;;;;;;;18.38;12.15;;;;;;;-143.21;74.93;71574.47;5131804;28;20274;-77
2023/07/01 05:06:28;;;;;;;18.17;12.30;;;;;;;-143.21;74.64;71574.47;5131812;28;20207;-77
2023/07/01 05:08:55;;;;;;;20.17;12.10;;;;;;;-143.21;74.08;71566.56;5131453;28;20230;-77
2023/07/01 05:11:23;;;;;;;14.05;11.60;;;;;;;-143.21;74.06;71564.56;5131708;28;20312;-79
2023/07/01 05:13:50;;;;;;;20.30;12.48;;;;;;;-143.21;74.35;71558.63;5131480;28;20248;-77
2023/07/01 05:16:17;;;;;;;16.00;11.93;;;;;;;-143.21;73.98;71558.63;5131493;28;20188;-78
2023/07/01 05:18:43;;;;;;;17.20;11.63;;;;;;;-143.21;73.94;71550.69;5131397;28;20666;-78
2023/07/01 05:21:10;;;;;;;15.60;12.50;;;;;;;-143.21;73.09;71540.78;5131258;28;20218;-77
2023/07/01 05:23:37;;;;;;;15.38;11.73;;;;;;;-143.21;72.36;71534.81;5131659;28;20191;-78
2023/07/01 05:26:04;;;;;;;17.52;12.23;;;;;;;-143.21;71.63;71540.78;5131280;28;20222;-78
2023/07/01 05:28:32;;;;;;;14.60;11.57;;;;;;;-143.21;71.73;71538.78;5131310;28;20199;-78
2023/07/01 05:30:59;;;;;;;15.55;11.60;;;;;;;-143.21;72.23;71538.78;5131523;28;20199;-78
2023/07/01 05:33:25;;;;;;;21.83;11.45;;;;;;;-143.21;72.30;71528.88;5131593;28;20307;-77
2023/07/01 05:35:52;;;;;;;14.90;11.43;;;;;;;-143.21;72.73;71524.91;5131233;28;20287;-77
2023/07/01 05:38:19;;;;;;;18.08;11.57;;;;;;;-143.21;72.06;71518.97;5131465;28;20203;-78
2023/07/01 05:40:46;;;;;;;13.48;10.98;;;;;;;-143.21;71.96;71515.00;5130954;28;20199;-77
2023/07/01 05:43:12;;;;;;;16.00;12.15;;;;;;;-143.21;71.50;71509.06;5131058;28;20199;-78
2023/07/01 05:45:41;;;;;;;18.42;11.48;;;;;;;-143.21;71.68;71505.09;5130913;28;20231;-78
2023/07/01 05:48:07;;;;;;;13.38;11.25;;;;;;;-143.21;71.84;71495.19;5131347;28;20195;-77
2023/07/01 05:50:34;;;;;;;17.35;12.45;;;;;;;-143.21;71.46;71493.19;5131018;28;20194;-77
2023/07/01 05:53:01;;;;;;;14.07;11.60;;;;;;;-143.21;71.97;71485.25;5131951;27;20199;-77
2023/07/01 05:55:28;;;;;;;19.25;12.60;;;;;;;-143.21;72.21;71487.25;5134780;27;20187;-78
2023/07/01 05:57:55;;;;;;;19.77;12.38;;;;;;;-143.21;72.57;71485.25;5134513;27;20203;-77
2023/07/01 06:00:22;;;;;;;17.73;12.70;;;;;;;-143.21;72.57;71483.28;5134670;27;20196;-76
2023/07/01 06:02:50;;;;;;;19.85;11.80;;;;;;;-143.21;71.69;71479.31;5134870;27;20286;-77
2023/07/01 06:05:17;;;;;;;14.80;11.27;;;;;;;-143.21;71.48;71471.38;5134555;27;20223;-77
2023/07/01 06:07:44;;;;;;;15.80;11.00;;;;;;;-143.21;71.41;71467.41;5135263;27;20260;-78
2023/07/01 06:10:11;;;;;;;18.08;11.48;;;;;;;-143.21;70.71;71459.47;5134477;27;20244;-77
2023/07/01 06:12:38;;;;;;;19.20;12.35;;;;;;;-143.21;70.15;71445.59;5134189;27;20282;-78
2023/07/01 06:15:05;;;;;;;17.05;11.55;;;;;;;-143.21;69.90;71429.75;5134835;27;20187;-78
2023/07/01 06:17:32;;;;;;;18.73;11.88;;;;;;;-143.21;69.60;71433.72;5134685;27;20572;-78
2023/07/01 06:20:00;;;;;;;17.25;12.20;;;;;;;-143.21;70.26;71427.75;5134299;27;20202;-79
2023/07/01 06:22:27;;;;;;;18.00;13.15;;;;;;;-143.21;70.44;71423.78;5134283;27;20260;-78
2023/07/01 06:24:54;;;;;;;20.27;13.25;;;;;;;-143.21;70.74;71417.84;5134355;27;20272;-78
2023/07/01 06:27:21;;;;;;;16.80;12.13;;;;;;;-143.21;70.26;71409.91;5134207;27;20207;-80
2023/07/01 06:29:47;;;;;;;18.00;12.50;;;;;;;-143.21;70.05;71398.03;5134731;27;20195;-78
2023/07/01 06:32:14;;;;;;;19.85;12.20;;;;;;;-143.21;69.85;71394.06;5134231;27;20205;-77
2023/07/01 06:34:41;;;;;;;18.60;12.10;;;;;;;-143.21;69.03;71382.16;5133937;27;20191;-77
2023/07/01 06:37:09;;;;;;;15.60;12.20;;;;;;;-143.21;67.72;71372.25;5134021;27;20207;-77
2023/07/01 06:39:36;;;;;;;17.67;11.35;;;;;;;-143.21;67.77;71372.25;5134259;27;20240;-76
2023/07/01 06:42:03;;;;;;;19.02;12.63;;;;;;;-143.21;67.36;71356.38;5134084;27;20195;-77
2023/07/01 06:44:29;;;;;;;13.30;11.40;;;;;;;-143.21;66.88;71346.47;5134090;27;20203;-78
2023/07/01 06:46:56;;;;;;;17.33;11.70;;;;;;;-143.21;66.74;71338.53;5133918;27;20596;-76
2023/07/01 06:49:23;;;;;;;20.13;12.00;;;;;;;-143.21;66.95;71328.63;5133773;27;20191;-78
2023/07/01 06:51:50;;;;;;;18.25;12.05;;;;;;;-143.21;66.90;71328.63;5133795;27;20627;-77
2023/07/01 06:54:19;;;;;;;16.10;11.25;;;;;;;-143.21;66.60;71330.63;5133472;27;20192;-76
2023/07/01 06:56:46;;;;;;;16.42;11.38;;;;;;;-143.21;64.85;71310.78;5133820;27;20640;-76
2023/07/01 06:59:13;;;;;;;18.38;11.45;;;;;;;-143.21;64.29;71300.88;5133644;27;20191;-77
2023/07/01 07:01:39;;;;;;;18.67;10.93;;;;;;;-143.21;64.22;71296.91;5133726;27;20730;-77
2023/07/01 07:04:07;;;;;;;17.35;10.60;;;;;;;-143.21;64.33;71287.00;5122457;27;20200;-77
2023/07/01 07:06:34;;;;;;;15.43;11.32;;;;;;;-143.21;64.42;71277.09;5125503;27;20223;-78
2023/07/01 07:09:01;;;;;;;18.02;11.70;;;;;;;-143.21;64.46;71265.19;5133338;27;20570;-78
2023/07/01 07:11:34;;;;;;;14.25;11.35;;;;;;;-143.21;64.07;71253.28;5132884;27;20241;-78
2023/07/01 07:14:00;;;;;;;14.73;10.90;;;;;;;-143.21;63.85;71241.41;5133395;27;20176;-77
2023/07/01 07:16:27;;;;;;;16.85;11.40;;;;;;;-143.21;63.30;71223.56;5133502;27;20191;-77
2023/07/01 07:18:54;;;;;;;21.55;10.98;;;;;;;-143.21;63.28;71209.69;5133292;27;20223;-77
2023/07/01 07:21:23;;;;;;;16.55;10.80;;;;;;;-143.21;62.08;71203.72;5133169;27;20656;-77
2023/07/01 07:23:50;;;;;;;17.08;10.27;;;;;;;-143.21;61.86;71193.81;5133316;27;20191;-77
2023/07/01 07:26:17;;;;;;;16.63;9.43;;;;;;;-143.21;61.60;71181.94;5132752;27;20720;-78
2023/07/01 07:28:45;;;;;;;15.10;9.32;;;;;;;-143.21;61.92;71177.97;5132896;27;20231;-76
2023/07/01 07:31:12;;;;;;;17.58;9.65;;;;;;;-143.21;61.28;71168.06;5132961;27;20579;-76
2023/07/01 07:33:39;;;;;;;14.18;9.55;;;;;;;-143.21;61.17;71152.19;5133209;27;20197;-77
2023/07/01 07:36:05;;;;;;;12.23;9.15;;;;;;;-143.21;60.57;71148.22;5133122;27;20203;-78
2023/07/01 07:38:32;;;;;;;12.60;8.85;;;;;;;-143.21;59.08;71136.31;5133298;27;20271;-77
2023/07/01 07:40:59;;;;;;;16.77;9.55;;;;;;;-143.21;nan;71130.38;5132768;27;20191;-77
2023/07/01 07:43:26;;;;;;;13.85;9.30;;;;;;;-143.21;59.40;71126.41;5133003;27;20199;-78
2023/07/01 07:45:54;;;;;;;15.63;10.18;;;;;;;-143.21;59.37;71114.53;5132762;27;20272;-78
2023/07/01 07:48:21;;;;;;;14.25;9.60;;;;;;;-143.21;59.78;71102.63;5132702;27;20195;-77
2023/07/01 07:50:47;;;;;;;17.80;10.40;;;;;;;-143.21;59.42;71096.69;5132978;27;20199;-77
2023/07/01 07:53:15;;;;;;;16.70;9.75;;;;;;;-143.21;58.58;71084.78;5133023;27;20188;-77
2023/07/01 07:55:42;;;;;;;12.60;9.10;;;;;;;-143.21;57.86;71078.84;5132598;27;20188;-77
2023/07/01 07:58:09;;;;;;;10.95;9.02;;;;;;;-143.21;58.36;71074.88;5132508;27;20183;-77
2023/07/01 08:00:36;;;;;;;19.10;11.20;;;;;;;-143.21;57.24;71059.00;5132675;27;20192;-77
2023/07/01 08:03:05;;;;;;;11.00;9.35;;;;;;;-143.21;56.74;71047.13;5132677;27;20240;-77
2023/07/01 08:05:31;;;;;;;9.38;8.23;;;;;;;-143.21;56.66;71047.13;5132391;27;20717;-77
2023/07/01 08:07:58;;;;;;;12.90;8.50;;;;;;;-143.21;56.87;71035.22;5132961;27;20606;-77
2023/07/01 08:10:25;;;;;;;14.63;9.88;;;;;;;-143.21;56.80;71019.38;5133061;27;20218;-77
2023/07/01 08:12:52;;;;;;;11.77;8.40;;;;;;;-143.21;56.04;70997.56;5132488;27;20248;-76
2023/07/01 08:15:18;;;;;;;17.30;8.32;;;;;;;-143.21;55.95;70985.66;5132631;27;20195;-76
2023/07/01 08:17:45;;;;;;;16.58;8.43;;;;;;;-143.21;54.68;70973.78;5131201;27;20195;-77
2023/07/01 08:20:14;;;;;;;11.30;8.55;;;;;;;-143.21;54.91;70963.84;5132263;27;20195;-77
2023/07/01 08:22:40;;;;;;;12.00;8.57;;;;;;;-143.21;55.12;70955.94;5132535;27;20260;-78
2023/07/01 08:25:08;;;;;;;10.65;7.80;;;;;;;-143.21;54.88;70940.06;5132526;27;20194;-78
2023/07/01 08:27:35;;;;;;;10.63;8.43;;;;;;;-143.21;53.04;70928.19;5131617;27;20195;-76
2023/07/01 08:30:02;;;;;;;12.98;7.78;;;;;;;-143.21;53.52;70918.25;5132156;27;20611;-76
2023/07/01 08:32:29;;;;;;;15.25;8.07;;;;;;;-143.21;53.77;70916.28;5132533;27;20205;-78
2023/07/01 08:34:55;;;;;;;13.55;8.50;;;;;;;-143.21;54.17;70904.38;5132422;27;20183;-77
2023/07/01 08:37:24;;;;;;;9.48;7.47;;;;;;;-143.21;53.20;70892.50;5132217;27;20195;-76
2023/07/01 08:39:50;;;;;;;13.45;8.15;;;;;;;-143.21;52.95;70880.59;5132085;27;20214;-76
2023/07/01 08:42:23;;;;;;;13.88;8.18;;;;;;;-143.21;52.00;70870.69;5131608;27;20202;-77
2023/07/01 08:44:51;;;;;;;11.32;7.70;;;;;;;-143.21;51.33;70860.78;5132129;27;20192;-78
2023/07/01 08:47:19;;;;;;;10.55;7.10;;;;;;;-143.21;50.74;70852.84;5131887;27;20215;-77
2023/07/01 08:49:48;;;;;;;9.80;7.30;;;;;;;-143.21;48.51;70837.00;5132228;28;20290;-77
2023/07/01 08:52:18;;;;;;;10.18;7.15;;;;;;;-143.21;48.71;70825.09;5131983;27;20196;-76
2023/07/01 08:54:47;;;;;;;11.52;7.28;;;;;;;-143.21;48.97;70813.19;5131848;27;20713;-76
2023/07/01 08:57:15;;;;;;;10.00;6.72;;;;;;;-143.21;50.05;70803.28;5131736;28;20192;-76
2023/07/01 08:59:43;;;;;;;9.75;6.90;;;;;;;-143.21;50.28;70799.31;5132243;28;20284;-77
2023/07/01 09:02:12;;;;;;;8.75;6.45;;;;;;;-143.21;49.66;70787.44;5132059;28;20195;-77
2023/07/01 09:04:39;;;;;;;10.88;7.55;;;;;;;-143.21;49.27;70771.56;5131875;28;20202;-77
2023/07/01 09:07:07;;;;;;;14.18;7.38;;;;;;;-143.21;49.05;70757.69;5131617;28;20223;-77
2023/07/01 09:09:34;;;;;;;9.50;7.80;;;;;;;-143.21;48.02;70741.84;5132019;28;20568;-77
2023/07/01 09:12:02;;;;;;;13.77;7.40;;;;;;;-143.21;47.62;70731.94;5131647;28;20670;-77
2023/07/01 09:14:57;;;;;;;11.07;6.93;;;;;;;-143.21;48.29;70720.03;5131760;28;20735;-77
2023/07/01 09:17:28;;;;;;;10.25;7.25;;;;;;;-143.21;48.92;70710.13;5131934;28;20202;-77
2023/07/01 09:19:58;;;;;;;11.25;7.38;;;;;;;-143.21;49.23;70688.31;5131668;28;20222;-77
2023/07/01 09:22:25;;;;;;;14.50;7.18;;;;;;;-143.21;49.11;70676.44;5132857;28;20630;-77
2023/07/01 09:24:51;;;;;;;23.13;12.02;;;;;;;-143.21;48.31;70662.56;5131794;28;20195;-77
2023/07/01 09:27:19;;;;;;;9.32;7.32;;;;;;;-143.21;47.53;70644.72;5131588;28;20219;-77
2023/07/01 09:29:46;;;;;;;14.38;9.18;;;;;;;-143.21;47.79;70626.88;5134852;27;20225;-77
2023/07/01 09:32:26;;;;;;;14.45;7.65;;;;;;;-143.21;46.20;70609.03;5135608;27;20654;-77
2023/07/01 09:34:55;;;;;;;13.50;7.18;;;;;;;-143.21;45.57;70599.13;5135584;27;20601;-77
2023/07/01 09:37:22;;;;;;;15.13;9.50;;;;;;;-143.21;46.32;70585.25;5135406;27;20646;-77
2023/07/01 09:39:50;;;;;;;14.75;8.88;;;;;;;-143.21;45.85;70575.34;5135248;27;20627;-78
2023/07/01 09:42:18;;;;;;;9.65;6.57;;;;;;;-143.21;44.93;70555.50;5135162;27;20222;-77
2023/07/01 09:45:05;;;;;;;8.23;6.40;;;;;;;-143.21;44.99;70545.59;5135206;27;20191;-77
2023/07/01 09:47:31;;;;;;;10.35;6.80;;;;;;;-143.21;44.70;70531.72;5134244;27;20222;-78
2023/07/01 09:49:58;;;;;;;12.80;7.40;;;;;;;-143.21;44.59;70517.84;5135241;27;20207;-77
2023/07/01 09:52:32;;;;;;;7.63;6.07;;;;;;;-143.21;44.95;70502.00;5135216;27;20230;-76
2023/07/01 09:55:01;;;;;;;9.93;6.30;;;;;;;-143.21;43.88;70488.13;5135086;27;20564;-76
2023/07/01 09:57:29;;;;;;;9.82;6.20;;;;;;;-143.21;43.88;70474.25;5134956;27;20294;-76
2023/07/01 09:59:57;;;;;;;10.45;6.45;;;;;;;-143.21;43.19;70456.41;5134941;27;20516;-76
2023/07/01 10:02:24;;;;;;;9.35;6.30;;;;;;;-143.21;42.70;70438.56;5135339;27;20191;-78
2023/07/01 10:04:52;;;;;;;10.52;6.10;;;;;;;-143.21;42.90;70430.66;5135336;27;20191;-76
2023/07/01 10:07:19;;;;;;;10.27;6.70;;;;;;;-143.21;42.35;70418.75;5134680;27;20674;-76
2023/07/01 10:09:46;;;;;;;8.40;6.85;;;;;;;-143.21;42.84;70402.91;5134956;27;20195;-76
2023/07/01 10:12:17;;;;;;;10.68;6.07;;;;;;;-143.21;43.01;70389.03;5134767;27;20195;-77
2023/07/01 10:14:47;;;;;;;7.93;6.03;;;;;;;-143.21;42.94;70369.19;5134803;27;20701;-77
2023/07/01 10:17:16;;;;;;;7.15;6.43;;;;;;;-143.21;43.33;70345.41;5134904;27;20184;-77
2023/07/01 10:19:46;;;;;;;8.50;6.13;;;;;;;-143.21;42.18;70339.47;5134809;27;20283;-77
2023/07/01 10:22:28;;;;;;;11.45;6.45;;;;;;;-143.21;41.16;70319.66;5134390;27;20652;-78
2023/07/01 10:24:57;;;;;;;8.25;6.80;;;;;;;-143.21;40.41;70309.75;5134855;27;20195;-78
2023/07/01 10:28:14;;;;;;;9.80;6.10;;;;;;;-143.21;41.88;70287.94;5134538;27;20246;-77
2023/07/01 10:31:12;;;;;;;9.32;6.80;;;;;;;-143.21;41.24;70258.22;5107862;27;20195;-77
2023/07/01 10:33:57;;;;;;;7.18;6.47;;;;;;;-143.21;40.51;70244.34;5134593;27;20238;-77
2023/07/01 10:36:25;;;;;;;13.23;6.88;;;;;;;-143.21;41.33;70226.50;5134543;27;20252;-77
2023/07/01 10:38:52;;;;;;;9.50;6.60;;;;;;;-143.21;40.19;70214.59;5134206;27;20698;-76
2023/07/01 10:41:53;;;;;;;10.85;6.00;;;;;;;-143.21;39.09;70202.72;5133131;27;20278;-77
2023/07/01 10:44:25;;;;;;;7.15;6.30;;;;;;;-143.21;39.18;70188.84;5134309;27;20696;-77
2023/07/01 10:47:17;;;;;;;9.68;6.18;;;;;;;-143.21;39.82;70165.06;5134055;27;20219;-78
2023/07/01 10:50:08;;;;;;;8.90;6.47;;;;;;;-143.21;39.34;70141.28;5134149;27;20646;-77
2023/07/01 10:53:02;;;;;;;10.05;6.35;;;;;;;-143.21;39.43;70115.50;5133928;27;20286;-77
2023/07/01 10:55:36;;;;;;;8.13;6.65;;;;;;;-143.21;38.68;70087.75;5133884;27;20187;-77
2023/07/01 10:58:23;;;;;;;9.30;6.65;;;;;;;-143.21;38.00;70063.97;5133324;27;20204;-78
2023/07/01 11:00:52;;;;;;;9.63;6.78;;;;;;;-143.21;37.45;70048.13;5133844;27;20618;-77
2023/07/01 11:03:51;;;;;;;8.05;6.85;;;;;;;-143.21;38.14;70030.28;5133672;27;20203;-77
2023/07/01 11:06:19;;;;;;;9.35;6.47;;;;;;;-143.21;38.04;70008.50;5128336;27;20215;-77
2023/07/01 11:08:47;;;;;;;10.93;7.05;;;;;;;-143.21;38.08;69994.63;5133718;27;20199;-77
2023/07/01 11:11:20;;;;;;;9.38;6.82;;;;;;;-143.21;37.52;69978.75;5134211;27;20281;-78
2023/07/01 11:14:01;;;;;;;10.98;6.88;;;;;;;-143.21;37.27;69962.91;5133856;27;20607;-77